Time;durP1;ratioP1;P1;durP2;ratioP2;P2;SDS_P1;SDS_P2;PMS_P1;PMS_P2;Temp;Humidity;BMP_temperature;BMP_pressure;BME280_temperature;BME280_humidity;BME280_pressure;Samples;Min_cycle;Max_cycle;Signal;HPM_P1;HPM_P2
2024/05/07 00:02:11;;;;;;;2.05;1.65;;;;;;;11.09;92.60;99909.25;5252794;27;20003;-58
2024/05/07 00:04:36;;;;;;;2.75;1.80;;;;;;;11.10;92.82;99911.69;5248017;27;20003;-57
2024/05/07 00:07:02;;;;;;;3.75;1.73;;;;;;;10.94;92.82;99914.34;5251445;27;20003;-57
2024/05/07 00:09:27;;;;;;;2.88;1.90;;;;;;;11.04;92.93;99914.16;5249264;27;20003;-57
2024/05/07 00:11:52;;;;;;;2.30;1.70;;;;;;;10.89;92.93;99914.84;5249430;27;20007;-57
2024/05/07 00:14:18;;;;;;;4.90;2.17;;;;;;;10.98;92.74;99928.63;5251117;27;20021;-57
2024/05/07 00:16:43;;;;;;;3.75;1.95;;;;;;;10.93;93.23;99921.31;5249399;27;20022;-58
2024/05/07 00:19:08;;;;;;;3.92;1.90;;;;;;;11.05;92.89;99939.16;5253363;27;20014;-57
2024/05/07 00:21:34;;;;;;;3.95;2.85;;;;;;;11.07;93.08;99942.38;5258573;27;20010;-57
2024/05/07 00:23:59;;;;;;;5.75;2.10;;;;;;;11.09;92.73;99935.25;5251116;27;20003;-60
2024/05/07 00:26:26;;;;;;;5.75;2.08;;;;;;;11.14;92.43;99941.53;5251063;27;20022;-57
2024/05/07 00:28:51;;;;;;;4.03;3.30;;;;;;;11.09;92.11;99920.47;5250187;27;20831;-57
2024/05/07 00:31:16;;;;;;;3.63;2.05;;;;;;;11.12;92.34;99929.72;5252785;27;20006;-57
2024/05/07 00:33:42;;;;;;;5.50;2.65;;;;;;;11.18;92.29;99947.19;5248942;27;20351;-57
2024/05/07 00:36:07;;;;;;;4.40;2.00;;;;;;;11.24;91.81;99943.94;5253708;27;20423;-57
2024/05/07 00:38:32;;;;;;;3.55;1.80;;;;;;;11.22;91.52;99933.72;5240615;27;20085;-56
2024/05/07 00:40:58;;;;;;;2.80;2.47;;;;;;;11.34;91.39;99943.69;5250802;27;20002;-58
2024/05/07 00:43:23;;;;;;;1.95;1.60;;;;;;;11.38;91.10;99939.78;5250597;27;20034;-57
2024/05/07 00:45:48;;;;;;;10.23;2.08;;;;;;;11.25;91.10;99922.97;5249182;27;20003;-57
2024/05/07 00:48:15;;;;;;;3.05;1.77;;;;;;;11.41;90.76;99947.25;5245485;27;20028;-57
2024/05/07 00:50:42;;;;;;;2.30;1.70;;;;;;;11.06;90.95;99889.59;5249834;27;20506;-56
2024/05/07 00:53:08;;;;;;;2.95;2.25;;;;;;;11.44;90.95;99945.09;5254408;27;20003;-57
2024/05/07 00:55:34;;;;;;;3.25;1.88;;;;;;;11.46;90.82;99952.72;5240616;27;20431;-57
2024/05/07 00:58:04;;;;;;;3.72;1.70;;;;;;;11.47;90.41;99949.94;5252784;27;20046;-57
2024/05/07 01:00:30;;;;;;;5.18;1.77;;;;;;;11.50;90.42;99957.44;5251107;27;21118;-57
2024/05/07 01:02:56;;;;;;;2.45;1.70;;;;;;;11.40;90.55;99933.44;5250521;27;20003;-57
2024/05/07 01:05:21;;;;;;;2.63;1.52;;;;;;;10.68;90.51;99823.72;5253157;27;20021;-58
2024/05/07 01:07:46;;;;;;;2.50;1.85;;;;;;;11.33;90.20;99927.28;5250228;27;19999;-54
2024/05/07 01:10:12;;;;;;;1.95;1.48;;;;;;;11.45;90.20;99936.31;5255194;27;20463;-57
2024/05/07 01:12:37;;;;;;;3.80;1.80;;;;;;;11.53;89.75;99951.88;5257039;27;20002;-57
2024/05/07 01:15:03;;;;;;;6.43;2.30;;;;;;;11.52;89.92;99952.88;5256223;27;20007;-57
2024/05/07 01:17:28;;;;;;;3.78;1.70;;;;;;;11.49;89.86;99944.59;5252597;27;20007;-58
2024/05/07 01:19:53;;;;;;;5.65;1.88;;;;;;;11.48;89.66;99935.16;5251445;27;20018;-57
2024/05/07 01:22:21;;;;;;;3.00;1.60;;;;;;;11.55;89.94;99949.91;5262338;27;20007;-57
2024/05/07 01:24:47;;;;;;;2.33;1.63;;;;;;;11.53;90.04;99949.28;5251314;27;20003;-57
2024/05/07 01:27:12;;;;;;;4.05;1.92;;;;;;;11.51;89.91;99947.84;5256532;27;20003;-58
2024/05/07 01:29:41;;;;;;;1.80;1.60;;;;;;;11.47;89.79;99929.16;5251361;27;20003;-57
2024/05/07 01:32:07;;;;;;;2.83;2.05;;;;;;;11.41;89.78;99922.06;5255451;27;20454;-58
2024/05/07 01:34:33;;;;;;;3.10;2.08;;;;;;;11.52;89.65;99941.66;5252065;27;20045;-57
2024/05/07 01:36:58;;;;;;;2.03;1.55;;;;;;;11.40;89.87;99927.44;5253496;27;20007;-56
2024/05/07 01:39:24;;;;;;;2.85;1.60;;;;;;;11.47;90.30;99939.56;5254359;27;19999;-57
2024/05/07 01:41:49;;;;;;;3.05;1.73;;;;;;;11.40;90.61;99940.44;5249722;27;20003;-58
2024/05/07 01:44:15;;;;;;;4.35;2.20;;;;;;;11.27;90.92;99922.00;5264773;27;20084;-56
2024/05/07 01:46:40;;;;;;;3.47;1.70;;;;;;;11.42;90.56;99936.66;5252070;27;20003;-56
2024/05/07 01:49:05;;;;;;;5.10;1.75;;;;;;;10.98;90.86;99873.28;5255336;27;20077;-58
2024/05/07 01:51:33;;;;;;;5.95;2.45;;;;;;;11.11;90.85;99896.91;5252301;27;20006;-57
2024/05/07 01:53:58;;;;;;;6.18;2.03;;;;;;;11.43;91.05;99940.88;5254292;27;20003;-57
2024/05/07 01:56:23;;;;;;;2.70;2.03;;;;;;;11.43;91.31;99943.50;5255631;27;20003;-56
2024/05/07 01:58:49;;;;;;;2.15;1.95;;;;;;;11.32;90.86;99928.28;5252054;27;20003;-58
2024/05/07 02:01:17;;;;;;;1.73;1.50;;;;;;;11.09;90.90;99885.88;5246175;27;20021;-57
2024/05/07 02:03:42;;;;;;;3.47;1.95;;;;;;;11.40;91.11;99937.81;5259536;27;20081;-57
2024/05/07 02:06:09;;;;;;;4.50;2.85;;;;;;;11.43;91.15;99947.88;5256825;27;20015;-57
2024/05/07 02:08:35;;;;;;;2.22;1.92;;;;;;;11.35;91.08;99940.13;5244212;27;20363;-61
2024/05/07 02:11:00;;;;;;;1.95;1.52;;;;;;;11.40;91.39;99937.81;5250193;27;19998;-57
2024/05/07 02:13:26;;;;;;;4.85;1.83;;;;;;;11.34;91.19;99938.50;5251512;27;20003;-57
2024/05/07 02:15:52;;;;;;;2.95;1.73;;;;;;;11.32;91.19;99941.28;5254810;27;20013;-58
2024/05/07 02:18:17;;;;;;;2.22;1.75;;;;;;;11.04;91.47;99890.75;5247541;27;19997;-57
2024/05/07 02:20:42;;;;;;;2.22;1.90;;;;;;;11.39;91.67;99951.81;5253376;27;20014;-57
2024/05/07 02:23:08;;;;;;;4.57;2.05;;;;;;;11.29;91.29;99936.44;5241614;27;20007;-57
2024/05/07 02:25:33;;;;;;;5.78;1.77;;;;;;;11.31;91.23;99946.66;5239793;27;20459;-57
2024/05/07 02:27:58;;;;;;;2.55;1.65;;;;;;;11.37;91.24;99952.00;5247265;27;20002;-57
2024/05/07 02:30:24;;;;;;;3.08;1.58;;;;;;;11.37;91.32;99951.19;5246852;27;20383;-58
2024/05/07 02:32:49;;;;;;;2.58;1.90;;;;;;;11.34;91.63;99954.09;5239671;27;20014;-55
2024/05/07 02:35:14;;;;;;;2.78;1.90;;;;;;;11.13;91.52;99933.91;5247163;27;20003;-57
2024/05/07 02:37:40;;;;;;;3.47;1.92;;;;;;;11.09;92.19;99945.63;5253787;27;20014;-59
2024/05/07 02:40:06;;;;;;;2.90;1.73;;;;;;;11.08;92.74;99954.38;5239804;27;20010;-57
2024/05/07 02:42:31;;;;;;;3.55;1.98;;;;;;;10.95;93.27;99940.19;5256107;27;20047;-57
2024/05/07 02:44:57;;;;;;;4.55;2.47;;;;;;;10.95;93.80;99940.19;5250023;27;19995;-57
2024/05/07 02:47:22;;;;;;;2.85;2.38;;;;;;;10.86;94.25;99937.78;5240157;27;20002;-57
2024/05/07 02:49:47;;;;;;;4.63;2.72;;;;;;;10.82;94.38;99934.72;5245824;27;19999;-57
2024/05/07 02:52:13;;;;;;;3.60;2.45;;;;;;;10.82;94.27;99928.72;5247443;27;20082;-58
2024/05/07 02:54:38;;;;;;;2.60;2.25;;;;;;;10.92;94.28;99947.47;5263730;27;19999;-57
2024/05/07 02:57:03;;;;;;;4.72;2.22;;;;;;;10.95;94.74;99944.53;5260533;27;20455;-57
2024/05/07 02:59:29;;;;;;;2.80;2.25;;;;;;;10.86;94.67;99936.00;5264242;27;20474;-59
2024/05/07 03:01:54;;;;;;;4.03;2.33;;;;;;;10.85;94.50;99934.38;5254372;27;20460;-57
2024/05/07 03:04:20;;;;;;;5.82;3.08;;;;;;;10.86;94.77;99929.97;5259007;27;20002;-57
2024/05/07 03:06:45;;;;;;;4.60;2.33;;;;;;;10.90;94.50;99947.66;5259145;27;20079;-57
2024/05/07 03:09:13;;;;;;;3.88;2.90;;;;;;;10.79;94.62;99931.63;5259779;27;20410;-56
2024/05/07 03:11:38;;;;;;;3.70;2.53;;;;;;;10.89;95.01;99948.63;5262111;27;20076;-58
2024/05/07 03:14:04;;;;;;;5.05;2.50;;;;;;;10.84;94.73;99944.94;5257243;27;20018;-57
2024/05/07 03:16:30;;;;;;;5.00;2.72;;;;;;;10.75;95.30;99933.75;5258398;27;20002;-57
2024/05/07 03:18:55;;;;;;;3.78;2.50;;;;;;;10.84;95.21;99948.34;5253806;27;20471;-57
2024/05/07 03:21:20;;;;;;;3.10;2.53;;;;;;;10.83;95.37;99948.50;5262761;27;20038;-57
2024/05/07 03:23:45;;;;;;;5.07;2.40;;;;;;;10.72;95.43;99934.09;5254158;27;19999;-57
2024/05/07 03:26:11;;;;;;;3.75;2.38;;;;;;;10.83;95.64;99962.31;5266131;27;20017;-57
2024/05/07 03:28:37;;;;;;;3.45;2.30;;;;;;;10.85;95.71;99955.16;5260863;27;19998;-57
2024/05/07 03:31:03;;;;;;;4.00;2.83;;;;;;;10.82;95.22;99957.28;5267260;27;20409;-56
2024/05/07 03:33:29;;;;;;;2.55;2.13;;;;;;;10.88;95.77;99966.97;5262352;27;20448;-56
2024/05/07 03:35:56;;;;;;;7.40;2.65;;;;;;;10.51;95.17;99907.84;5259480;27;20014;-56
2024/05/07 03:38:22;;;;;;;3.85;2.55;;;;;;;10.91;95.10;99966.63;5264282;27;19998;-56
2024/05/07 03:40:48;;;;;;;2.33;2.10;;;;;;;10.68;95.65;99922.41;5258377;27;20014;-57
2024/05/07 03:43:14;;;;;;;4.57;2.92;;;;;;;10.86;95.25;99945.56;5263478;27;20009;-55
2024/05/07 03:45:40;;;;;;;3.35;2.70;;;;;;;10.80;95.54;99947.03;5261061;27;19995;-57
2024/05/07 03:48:06;;;;;;;3.90;2.38;;;;;;;10.95;95.13;99971.34;5262801;27;20013;-58
2024/05/07 03:50:31;;;;;;;4.95;2.58;;;;;;;10.97;95.29;99980.75;5259932;27;20003;-57
2024/05/07 03:52:57;;;;;;;3.58;2.72;;;;;;;10.99;94.97;99978.81;5261463;27;20005;-58
2024/05/07 03:55:22;;;;;;;4.05;3.40;;;;;;;10.87;95.24;99968.78;5264321;27;19998;-57
2024/05/07 03:57:47;;;;;;;3.88;2.28;;;;;;;10.69;95.50;99931.84;5244779;27;20331;-56
2024/05/07 04:00:13;;;;;;;4.45;2.83;;;;;;;11.02;94.86;99981.88;5261719;27;20002;-57
2024/05/07 04:02:38;;;;;;;3.78;2.80;;;;;;;11.03;95.61;99982.69;5270322;27;20006;-58
2024/05/07 04:05:04;;;;;;;4.25;2.78;;;;;;;10.96;95.25;99974.75;5265548;27;20015;-57
2024/05/07 04:07:29;;;;;;;3.67;2.65;;;;;;;11.04;94.97;99986.91;5266325;27;20047;-57
2024/05/07 04:09:54;;;;;;;6.47;2.67;;;;;;;10.74;95.17;99934.72;5260691;27;20014;-57
2024/05/07 04:12:20;;;;;;;3.38;2.75;;;;;;;11.06;95.17;99984.94;5270732;27;20006;-57
2024/05/07 04:14:45;;;;;;;4.63;2.90;;;;;;;11.07;95.16;99986.56;5270209;27;20002;-58
2024/05/07 04:17:10;;;;;;;2.47;2.00;;;;;;;11.02;95.10;99986.25;5270444;27;20002;-57
2024/05/07 04:19:36;;;;;;;5.78;3.45;;;;;;;11.07;95.49;99989.16;5268420;27;20006;-57
2024/05/07 04:22:01;;;;;;;4.60;2.70;;;;;;;11.04;94.87;99985.09;5262823;27;20095;-57
2024/05/07 04:24:26;;;;;;;2.90;2.38;;;;;;;11.08;94.76;99995.97;5275229;27;20006;-56
2024/05/07 04:26:51;;;;;;;2.95;2.30;;;;;;;11.11;95.17;100000.84;5260831;27;20013;-57
2024/05/07 04:29:17;;;;;;;5.03;2.50;;;;;;;11.07;95.16;99989.97;5266830;27;20081;-56
2024/05/07 04:31:42;;;;;;;4.53;2.97;;;;;;;11.10;94.88;99988.84;5272850;27;20010;-57
2024/05/07 04:34:07;;;;;;;6.75;2.80;;;;;;;11.20;94.49;100015.41;5273609;27;20082;-57
2024/05/07 04:36:33;;;;;;;8.50;3.05;;;;;;;11.21;95.39;100012.63;5269137;27;20014;-57
2024/05/07 04:38:58;;;;;;;5.47;3.08;;;;;;;11.23;94.84;100017.69;5252246;27;20017;-57
2024/05/07 04:41:23;;;;;;;3.20;2.60;;;;;;;11.13;94.94;100001.47;5274599;27;20390;-57
2024/05/07 04:43:49;;;;;;;3.65;2.97;;;;;;;11.22;94.68;100018.66;5263359;27;20469;-58
2024/05/07 04:46:14;;;;;;;4.75;3.00;;;;;;;11.24;94.97;100022.72;5264780;27;20020;-58
2024/05/07 04:48:40;;;;;;;9.73;3.20;;;;;;;11.25;94.89;100018.34;5268356;27;20014;-56
2024/05/07 04:51:07;;;;;;;3.83;2.90;;;;;;;11.27;94.82;100034.56;5268015;27;20094;-57
2024/05/07 04:53:32;;;;;;;4.43;3.13;;;;;;;11.21;95.34;100028.22;5272438;27;20002;-57
2024/05/07 04:55:57;;;;;;;7.57;3.65;;;;;;;11.16;95.69;100025.34;5262497;27;20002;-56
2024/05/07 04:58:23;;;;;;;5.35;3.50;;;;;;;11.18;95.86;100031.16;5259274;27;20017;-55
2024/05/07 05:00:48;;;;;;;5.03;4.03;;;;;;;11.12;96.26;100042.25;5246635;27;19999;-55
2024/05/07 05:03:13;;;;;;;6.43;3.70;;;;;;;11.15;96.74;100036.72;5241946;27;20014;-56
2024/05/07 05:05:39;;;;;;;6.53;4.70;;;;;;;11.24;97.26;100042.69;5242067;27;20003;-56
2024/05/07 05:08:11;;;;;;;8.52;5.10;;;;;;;11.12;97.44;100028.44;5242375;27;20531;-57
2024/05/07 05:10:37;;;;;;;9.35;6.25;;;;;;;11.02;97.64;99996.66;5241785;27;20080;-56
2024/05/07 05:13:03;;;;;;;11.27;6.13;;;;;;;11.39;98.29;100064.41;5241117;27;20014;-57
2024/05/07 05:15:28;;;;;;;10.68;6.07;;;;;;;11.17;98.40;100013.16;5240848;27;20081;-56
2024/05/07 05:17:54;;;;;;;9.43;6.43;;;;;;;11.07;98.79;100000.34;5240668;27;20392;-56
2024/05/07 05:20:19;;;;;;;13.52;7.85;;;;;;;11.53;99.05;100061.09;5250995;27;20010;-56
2024/05/07 05:22:44;;;;;;;13.50;7.22;;;;;;;11.58;99.17;100059.75;5269269;27;20870;-56
2024/05/07 05:25:10;;;;;;;13.02;8.05;;;;;;;11.64;99.22;100074.72;5264336;27;20002;-56
2024/05/07 05:27:35;;;;;;;13.90;8.93;;;;;;;11.69;99.74;100064.59;5267974;27;20002;-56
2024/05/07 05:30:01;;;;;;;14.07;9.27;;;;;;;11.65;99.34;100056.31;5267450;27;19998;-57
2024/05/07 05:32:26;;;;;;;11.40;8.05;;;;;;;11.48;98.96;100026.16;5271385;27;19998;-57
2024/05/07 05:34:51;;;;;;;10.57;7.72;;;;;;;11.75;98.83;100067.34;5267700;27;20050;-58
2024/05/07 05:37:17;;;;;;;12.32;8.50;;;;;;;11.77;98.75;100073.16;5267266;27;20013;-61
2024/05/07 05:39:42;;;;;;;10.40;7.50;;;;;;;11.76;98.84;100068.16;5265992;27;20621;-57
2024/05/07 05:42:07;;;;;;;16.15;6.97;;;;;;;11.77;98.86;100080.16;5269203;27;20006;-58
2024/05/07 05:44:33;;;;;;;12.45;7.07;;;;;;;11.78;98.73;100084.38;5262453;27;20017;-58
2024/05/07 05:46:58;;;;;;;9.15;5.90;;;;;;;11.81;99.09;100097.06;5264043;27;20014;-57
2024/05/07 05:49:23;;;;;;;9.10;6.15;;;;;;;11.63;99.05;100062.69;5270306;27;19998;-60
2024/05/07 05:51:49;;;;;;;8.02;5.18;;;;;;;11.75;98.80;100085.53;5267951;27;20554;-57
2024/05/07 05:54:15;;;;;;;8.75;6.35;;;;;;;11.76;98.59;100091.56;5245563;27;20009;-57
2024/05/07 05:56:40;;;;;;;8.15;6.15;;;;;;;11.82;98.85;100101.28;5259372;27;19999;-58
2024/05/07 05:59:05;;;;;;;9.80;6.75;;;;;;;11.70;98.95;100079.22;5266573;27;20003;-57
2024/05/07 06:01:31;;;;;;;8.73;5.85;;;;;;;11.80;98.70;100095.47;5272880;27;20013;-57
2024/05/07 06:03:56;;;;;;;7.80;5.28;;;;;;;11.84;98.89;100096.72;5267341;27;20007;-60
2024/05/07 06:06:21;;;;;;;7.25;4.82;;;;;;;11.98;99.04;100109.00;5268196;27;20737;-56
2024/05/07 06:08:47;;;;;;;8.40;4.72;;;;;;;12.10;98.66;100102.44;5265454;27;20473;-58
2024/05/07 06:11:12;;;;;;;8.18;6.05;;;;;;;11.95;98.03;100064.31;5267437;27;20006;-59
2024/05/07 06:13:37;;;;;;;7.68;5.32;;;;;;;12.25;98.04;100118.13;5267248;27;20070;-58
2024/05/07 06:16:03;;;;;;;7.35;6.03;;;;;;;12.29;97.74;100134.22;5267309;27;19999;-59
2024/05/07 06:18:28;;;;;;;8.02;5.28;;;;;;;12.32;97.90;100136.47;5268258;27;20046;-57
2024/05/07 06:20:54;;;;;;;8.70;5.43;;;;;;;12.33;97.14;100144.09;5265809;27;20014;-56
2024/05/07 06:23:20;;;;;;;9.52;5.85;;;;;;;12.34;97.00;100142.31;5270262;27;20083;-60
2024/05/07 06:25:47;;;;;;;7.07;4.53;;;;;;;12.31;97.27;100140.88;5269534;27;20002;-59
2024/05/07 06:28:12;;;;;;;6.15;4.38;;;;;;;12.33;96.83;100144.09;5262433;27;20010;-57
2024/05/07 06:30:38;;;;;;;7.53;4.60;;;;;;;12.37;97.01;100154.97;5268773;27;20077;-59
2024/05/07 06:33:04;;;;;;;7.13;4.95;;;;;;;12.40;97.05;100163.25;5267750;27;19998;-58
2024/05/07 06:35:30;;;;;;;7.20;5.30;;;;;;;12.42;96.82;100158.69;5273025;27;20703;-57
2024/05/07 06:37:55;;;;;;;6.47;5.13;;;;;;;12.47;96.81;100171.19;5268654;27;20572;-56
2024/05/07 06:40:21;;;;;;;9.98;6.45;;;;;;;12.12;96.49;100110.06;5250071;27;20006;-57
2024/05/07 06:42:46;;;;;;;7.38;5.30;;;;;;;12.46;96.05;100153.94;5241227;27;19999;-59
2024/05/07 06:45:22;;;;;;;7.55;5.30;;;;;;;12.64;95.88;100185.72;5244412;27;20080;-58
2024/05/07 06:47:48;;;;;;;5.55;4.70;;;;;;;12.49;95.46;100142.38;5245313;27;20711;-55
2024/05/07 06:50:13;;;;;;;5.38;3.17;;;;;;;12.81;95.58;100168.16;5247261;27;20018;-57
2024/05/07 06:52:38;;;;;;;5.00;4.25;;;;;;;12.87;95.76;100177.09;5246849;27;20003;-60
2024/05/07 06:55:05;;;;;;;6.90;5.35;;;;;;;12.95;94.68;100193.47;5247526;27;20003;-57
2024/05/07 06:57:30;;;;;;;5.82;5.15;;;;;;;12.92;94.43;100172.94;5246075;27;20007;-59
2024/05/07 06:59:55;;;;;;;5.65;4.70;;;;;;;13.07;93.88;100193.03;5247366;27;20007;-57
2024/05/07 07:02:21;;;;;;;6.45;4.78;;;;;;;13.14;93.50;100199.97;5249514;27;20088;-60
2024/05/07 07:04:46;;;;;;;6.13;4.50;;;;;;;13.14;93.43;100178.31;5252065;27;20022;-59
2024/05/07 07:07:11;;;;;;;5.72;4.07;;;;;;;13.25;92.72;100196.16;5249914;27;20010;-60
2024/05/07 07:09:37;;;;;;;7.03;4.07;;;;;;;13.32;92.46;100189.25;5250798;27;20090;-58
2024/05/07 07:12:02;;;;;;;5.80;4.13;;;;;;;13.48;92.23;100211.72;5249372;27;20433;-58
2024/05/07 07:14:28;;;;;;;5.35;3.58;;;;;;;13.45;92.01;100193.84;5256572;27;20537;-58
2024/05/07 07:16:56;;;;;;;5.57;4.05;;;;;;;13.56;92.22;100199.44;5270165;27;20023;-57
2024/05/07 07:19:24;;;;;;;6.63;2.80;;;;;;;13.50;91.87;100166.25;5275997;27;20014;-55
2024/05/07 07:21:50;;;;;;;4.65;4.05;;;;;;;13.78;90.98;100208.16;5275648;27;20073;-60
2024/05/07 07:24:15;;;;;;;5.55;3.58;;;;;;;13.87;89.82;100220.09;5273395;27;20006;-57
2024/05/07 07:26:41;;;;;;;4.50;3.28;;;;;;;13.94;89.08;100227.22;5268618;27;20014;-59
2024/05/07 07:29:06;;;;;;;3.25;2.85;;;;;;;13.92;88.93;100218.78;5274023;27;20034;-57
2024/05/07 07:31:31;;;;;;;5.63;3.38;;;;;;;13.84;87.83;100212.66;5275994;27;19999;-57
2024/05/07 07:33:58;;;;;;;3.85;3.13;;;;;;;13.90;86.86;100222.38;5274910;27;20029;-59
2024/05/07 07:36:24;;;;;;;4.32;3.20;;;;;;;13.97;87.33;100232.09;5276088;27;20006;-57
2024/05/07 07:38:49;;;;;;;3.88;3.22;;;;;;;14.02;87.00;100230.56;5276046;27;20002;-62
2024/05/07 07:41:15;;;;;;;3.00;2.70;;;;;;;13.98;86.46;100228.47;5249869;27;20083;-57
2024/05/07 07:43:40;;;;;;;3.97;3.00;;;;;;;13.94;86.15;100230.66;5276211;27;20013;-57
2024/05/07 07:46:06;;;;;;;4.00;2.88;;;;;;;14.02;86.39;100245.38;5249653;27;20130;-58
2024/05/07 07:48:31;;;;;;;3.60;3.03;;;;;;;14.01;86.09;100246.38;5250468;27;20017;-62
2024/05/07 07:50:56;;;;;;;4.00;2.42;;;;;;;13.99;86.10;100249.19;5249319;27;20007;-57
2024/05/07 07:53:22;;;;;;;3.55;2.25;;;;;;;14.12;86.60;100253.75;5248280;27;20006;-57
2024/05/07 07:55:47;;;;;;;3.17;2.47;;;;;;;13.93;85.92;100204.72;5247072;27;20014;-58
2024/05/07 07:58:13;;;;;;;3.17;2.47;;;;;;;14.29;85.35;100257.81;5250530;27;20008;-57
2024/05/07 08:00:38;;;;;;;2.92;2.35;;;;;;;14.12;84.99;100225.03;5264190;27;20009;-58
2024/05/07 08:03:03;;;;;;;6.32;2.50;;;;;;;14.29;84.06;100259.59;5275017;27;20013;-57
2024/05/07 08:05:29;;;;;;;2.80;2.13;;;;;;;14.37;84.32;100260.31;5260588;27;20010;-57
2024/05/07 08:07:54;;;;;;;4.28;2.35;;;;;;;14.55;83.87;100274.78;5261260;27;20012;-60
2024/05/07 08:10:19;;;;;;;3.75;2.70;;;;;;;14.51;83.18;100261.28;5249252;27;20075;-61
2024/05/07 08:12:48;;;;;;;3.13;2.83;;;;;;;14.53;82.47;100261.91;5248643;27;20014;-57
2024/05/07 08:15:14;;;;;;;2.83;2.47;;;;;;;14.33;82.21;100221.69;5247959;27;20433;-59
2024/05/07 08:17:39;;;;;;;6.28;3.38;;;;;;;14.64;82.05;100261.44;5246852;27;20006;-57
2024/05/07 08:20:05;;;;;;;2.70;2.50;;;;;;;14.59;81.37;100242.09;5249358;27;20412;-64
2024/05/07 08:22:31;;;;;;;6.15;2.50;;;;;;;14.98;81.12;100293.97;5250355;27;20105;-60
2024/05/07 08:24:56;;;;;;;2.58;2.38;;;;;;;15.09;79.87;100296.09;5250077;27;20719;-58
2024/05/07 08:27:21;;;;;;;2.60;2.40;;;;;;;15.32;80.00;100290.63;5247836;27;20010;-58
2024/05/07 08:29:47;;;;;;;3.20;2.17;;;;;;;15.71;79.51;100299.81;5247897;27;19995;-57
2024/05/07 08:32:12;;;;;;;3.30;2.20;;;;;;;15.96;77.87;100298.38;5242869;27;20007;-58
2024/05/07 08:34:37;;;;;;;3.85;2.03;;;;;;;16.25;76.56;100298.09;5242330;27;20010;-57
2024/05/07 08:37:03;;;;;;;4.68;2.15;;;;;;;16.53;76.19;100297.22;5243639;27;20347;-57
2024/05/07 08:39:28;;;;;;;3.05;2.22;;;;;;;16.61;74.68;100276.06;5242360;27;20344;-58
2024/05/07 08:41:54;;;;;;;2.20;2.00;;;;;;;16.75;74.22;100266.44;5269765;27;20050;-61
2024/05/07 08:44:20;;;;;;;2.13;1.52;;;;;;;17.10;73.06;100302.03;5248856;27;20076;-57
2024/05/07 08:46:47;;;;;;;2.67;1.58;;;;;;;17.13;70.55;100301.63;5261821;27;20002;-57
2024/05/07 08:49:16;;;;;;;1.60;1.50;;;;;;;17.28;71.95;100332.91;5257228;27;19998;-57
2024/05/07 08:51:47;;;;;;;2.55;1.50;;;;;;;17.51;70.41;100323.84;5241145;27;20015;-56
2024/05/07 08:54:13;;;;;;;1.75;1.52;;;;;;;17.41;70.39;100319.81;5255908;27;20707;-56
2024/05/07 08:56:39;;;;;;;4.03;1.45;;;;;;;17.40;70.78;100323.44;5243385;27;19999;-57
2024/05/07 08:59:04;;;;;;;2.00;1.80;;;;;;;17.23;70.01;100297.78;5244470;27;20074;-56
2024/05/07 09:01:29;;;;;;;2.38;1.40;;;;;;;17.18;70.43;100279.22;5243111;27;19999;-57
2024/05/07 09:03:55;;;;;;;2.97;1.67;;;;;;;17.51;68.50;100329.09;5269536;27;20014;-57
2024/05/07 09:06:20;;;;;;;1.80;1.40;;;;;;;17.33;68.04;100308.69;5261351;27;20021;-56
2024/05/07 09:08:49;;;;;;;2.55;1.40;;;;;;;17.39;68.73;100298.19;5259996;27;19998;-57
2024/05/07 09:11:20;;;;;;;1.20;1.10;;;;;;;17.87;66.69;100326.03;5248983;27;20054;-58
2024/05/07 09:13:45;;;;;;;1.70;1.20;;;;;;;17.82;66.46;100337.19;5274039;27;20006;-56
2024/05/07 09:16:11;;;;;;;1.20;1.10;;;;;;;17.77;64.89;100341.44;5246242;27;20049;-57
2024/05/07 09:18:38;;;;;;;1.40;1.23;;;;;;;17.90;66.04;100339.59;5244100;27;20478;-56
2024/05/07 09:21:04;;;;;;;1.02;0.90;;;;;;;17.98;65.34;100318.34;5247164;27;20007;-58
2024/05/07 09:23:30;;;;;;;1.58;1.30;;;;;;;18.33;65.00;100343.53;5261816;27;20006;-57
2024/05/07 09:26:10;;;;;;;2.83;1.27;;;;;;;18.54;63.00;100325.63;5261461;27;20273;-55
2024/05/07 09:28:36;;;;;;;2.58;1.05;;;;;;;18.70;63.53;100318.34;5235959;27;20006;-59
2024/05/07 09:31:06;;;;;;;1.83;1.20;;;;;;;19.05;60.43;100332.69;5257107;27;19999;-57
2024/05/07 09:33:36;;;;;;;1.05;0.95;;;;;;;19.07;59.87;100356.97;5254867;27;20740;-56
2024/05/07 09:36:08;;;;;;;1.23;1.05;;;;;;;19.29;60.94;100361.91;5260190;27;20462;-57
2024/05/07 09:38:39;;;;;;;2.72;1.05;;;;;;;19.58;59.74;100345.50;5262584;27;20003;-56
2024/05/07 09:41:08;;;;;;;1.35;0.90;;;;;;;19.97;57.46;100372.50;5262627;27;20439;-60
2024/05/07 09:43:35;;;;;;;1.20;0.90;;;;;;;20.07;57.18;100355.19;5255244;27;20018;-56
2024/05/07 09:46:14;;;;;;;1.40;0.90;;;;;;;20.45;57.45;100370.00;5258887;27;20367;-59
2024/05/07 09:48:41;;;;;;;2.20;1.20;;;;;;;20.49;56.32;100333.44;5258071;27;20087;-57
2024/05/07 09:51:08;;;;;;;1.42;0.93;;;;;;;20.92;56.56;100349.91;5261857;27;20006;-56
2024/05/07 09:53:34;;;;;;;1.05;0.82;;;;;;;21.29;53.77;100378.88;5254353;27;20112;-57
2024/05/07 09:56:01;;;;;;;1.77;1.00;;;;;;;21.27;53.07;100380.94;5273445;27;20006;-56
2024/05/07 09:58:29;;;;;;;1.83;1.00;;;;;;;20.80;53.09;100325.31;5251694;27;20025;-59
2024/05/07 10:00:54;;;;;;;1.00;0.90;;;;;;;21.06;52.32;100384.84;5263369;27;20021;-56
2024/05/07 10:03:21;;;;;;;2.83;1.00;;;;;;;20.63;52.80;100387.66;5251223;27;20014;-57
2024/05/07 10:05:58;;;;;;;4.30;0.80;;;;;;;20.46;53.75;100394.56;5263588;27;20018;-56
2024/05/07 10:08:25;;;;;;;1.40;1.00;;;;;;;20.27;53.85;100399.78;5259023;27;20414;-57
2024/05/07 10:10:51;;;;;;;1.73;1.00;;;;;;;20.17;53.19;100396.84;5257544;27;20017;-57
2024/05/07 10:13:18;;;;;;;1.60;1.00;;;;;;;20.27;53.86;100407.69;5270706;27;20080;-57
2024/05/07 10:15:44;;;;;;;3.50;1.20;;;;;;;20.07;54.04;100371.00;5247574;27;20015;-57
2024/05/07 10:18:09;;;;;;;1.95;1.00;;;;;;;20.46;54.22;100402.47;5251844;27;20062;-55
2024/05/07 10:20:35;;;;;;;3.22;1.10;;;;;;;20.46;53.50;100416.47;5266550;27;20003;-57
2024/05/07 10:23:10;;;;;;;2.50;1.00;;;;;;;19.40;53.98;100312.00;5260201;27;20084;-58
2024/05/07 10:25:48;;;;;;;1.60;1.10;;;;;;;19.86;54.02;100412.75;5239188;27;20003;-56
2024/05/07 10:28:14;;;;;;;1.45;1.10;;;;;;;19.88;54.62;100419.41;5262549;27;20018;-56
2024/05/07 10:30:47;;;;;;;1.98;1.13;;;;;;;19.90;55.38;100427.09;5265432;27;20077;-56
2024/05/07 10:33:16;;;;;;;2.13;1.08;;;;;;;19.98;54.78;100426.84;5252705;27;20006;-57
2024/05/07 10:35:46;;;;;;;1.38;0.90;;;;;;;19.82;56.05;100401.03;5259560;27;20207;-56
2024/05/07 10:38:11;;;;;;;1.48;0.90;;;;;;;20.14;54.94;100426.28;5265668;27;20046;-56
2024/05/07 10:40:36;;;;;;;1.10;1.00;;;;;;;20.31;54.85;100431.81;5261867;27;20006;-58
2024/05/07 10:43:02;;;;;;;1.35;1.00;;;;;;;20.24;55.37;100431.88;5268645;27;20015;-56
2024/05/07 10:45:35;;;;;;;3.25;1.00;;;;;;;20.27;55.30;100449.88;5272309;27;20002;-57
2024/05/07 10:48:10;;;;;;;2.10;1.13;;;;;;;20.05;54.54;100419.69;5263956;27;20003;-57
2024/05/07 10:50:36;;;;;;;1.42;1.10;;;;;;;19.68;54.74;100443.28;5259265;27;20011;-56
2024/05/07 10:53:01;;;;;;;1.40;1.10;;;;;;;19.36;55.60;100449.53;5254994;27;20007;-56
2024/05/07 10:55:26;;;;;;;2.17;1.20;;;;;;;18.97;56.40;100442.69;5260606;27;20006;-56
2024/05/07 10:57:52;;;;;;;1.45;1.10;;;;;;;18.94;56.53;100451.78;5261016;27;20072;-57
2024/05/07 11:00:17;;;;;;;1.73;1.00;;;;;;;18.83;57.10;100460.31;5266314;27;20013;-55
2024/05/07 11:02:44;;;;;;;1.38;1.10;;;;;;;18.67;57.73;100442.34;5261990;27;20078;-56
2024/05/07 11:05:11;;;;;;;2.05;1.08;;;;;;;18.86;58.34;100460.72;5257735;27;20055;-56
2024/05/07 11:07:37;;;;;;;1.92;1.30;;;;;;;18.78;57.61;100447.78;5266246;27;20026;-56
2024/05/07 11:10:05;;;;;;;1.80;1.25;;;;;;;18.67;58.19;100455.50;5255474;27;20002;-56
2024/05/07 11:12:31;;;;;;;1.23;1.08;;;;;;;18.49;57.23;100454.31;5262779;27;20006;-57
2024/05/07 11:14:58;;;;;;;1.35;1.15;;;;;;;18.11;58.27;100442.84;5253241;27;20014;-59
2024/05/07 11:17:24;;;;;;;0.80;0.80;;;;;;;17.66;59.24;100401.41;5266514;27;20102;-57
2024/05/07 11:19:49;;;;;;;1.75;1.10;;;;;;;17.85;59.68;100433.97;5244674;27;20003;-59
2024/05/07 11:22:15;;;;;;;2.70;1.33;;;;;;;17.97;59.83;100463.88;5253485;27;19998;-59
2024/05/07 11:24:41;;;;;;;1.80;0.95;;;;;;;17.94;59.34;100453.78;5258436;27;19998;-59